sensor_id;sensor_type;location;lat;lon;timestamp;P1;durP1;ratioP1;P2;durP2;ratioP2
9807;SDS011;4943;52.550;13.462;2023-05-10T00:01:12;198.97;;;168.83;;
9807;SDS011;4943;52.550;13.462;2023-05-10T00:03:42;201.00;;;170.30;;
9807;SDS011;4943;52.550;13.462;2023-05-10T00:08:38;186.13;;;165.33;;
9807;SDS011;4943;52.550;13.462;2023-05-10T00:11:06;183.70;;;164.10;;
9807;SDS011;4943;52.550;13.462;2023-05-10T00:13:34;191.93;;;160.27;;
9807;SDS011;4943;52.550;13.462;2023-05-10T00:16:02;175.47;;;154.63;;
9807;SDS011;4943;52.550;13.462;2023-05-10T00:18:30;179.43;;;160.13;;
9807;SDS011;4943;52.550;13.462;2023-05-10T00:21:00;190.70;;;156.40;;
9807;SDS011;4943;52.550;13.462;2023-05-10T00:23:27;184.77;;;156.67;;
9807;SDS011;4943;52.550;13.462;2023-05-10T00:25:55;180.57;;;155.27;;
9807;SDS011;4943;52.550;13.462;2023-05-10T00:28:23;195.07;;;161.43;;
9807;SDS011;4943;52.550;13.462;2023-05-10T00:30:51;177.97;;;155.97;;
9807;SDS011;4943;52.550;13.462;2023-05-10T00:33:19;188.80;;;154.50;;
9807;SDS011;4943;52.550;13.462;2023-05-10T00:35:47;169.30;;;149.03;;
9807;SDS011;4943;52.550;13.462;2023-05-10T00:38:17;170.50;;;150.47;;
9807;SDS011;4943;52.550;13.462;2023-05-10T00:40:45;168.90;;;149.27;;
9807;SDS011;4943;52.550;13.462;2023-05-10T00:43:13;179.27;;;149.87;;
9807;SDS011;4943;52.550;13.462;2023-05-10T00:45:41;184.40;;;153.37;;
9807;SDS011;4943;52.550;13.462;2023-05-10T00:48:09;176.57;;;148.73;;
9807;SDS011;4943;52.550;13.462;2023-05-10T00:50:37;176.70;;;149.23;;
9807;SDS011;4943;52.550;13.462;2023-05-10T00:53:06;189.70;;;146.13;;
9807;SDS011;4943;52.550;13.462;2023-05-10T00:55:36;181.63;;;146.80;;
9807;SDS011;4943;52.550;13.462;2023-05-10T00:58:04;186.27;;;152.57;;
9807;SDS011;4943;52.550;13.462;2023-05-10T01:00:33;189.67;;;149.53;;
9807;SDS011;4943;52.550;13.462;2023-05-10T01:03:01;183.43;;;145.60;;
9807;SDS011;4943;52.550;13.462;2023-05-10T01:05:30;167.97;;;145.20;;
9807;SDS011;4943;52.550;13.462;2023-05-10T01:07:58;169.67;;;143.10;;
9807;SDS011;4943;52.550;13.462;2023-05-10T01:10:26;174.73;;;145.43;;
9807;SDS011;4943;52.550;13.462;2023-05-10T01:12:55;162.97;;;140.50;;
9807;SDS011;4943;52.550;13.462;2023-05-10T01:15:24;168.27;;;143.30;;
9807;SDS011;4943;52.550;13.462;2023-05-10T01:17:52;150.70;;;133.77;;
9807;SDS011;4943;52.550;13.462;2023-05-10T01:20:20;151.23;;;134.83;;
9807;SDS011;4943;52.550;13.462;2023-05-10T01:25:57;150.50;;;134.13;;
9807;SDS011;4943;52.550;13.462;2023-05-10T01:29:05;157.10;;;134.83;;
9807;SDS011;4943;52.550;13.462;2023-05-10T01:32:06;155.57;;;134.57;;
9807;SDS011;4943;52.550;13.462;2023-05-10T01:34:45;160.60;;;134.60;;
9807;SDS011;4943;52.550;13.462;2023-05-10T01:37:21;156.07;;;133.40;;
9807;SDS011;4943;52.550;13.462;2023-05-10T01:39:58;151.93;;;129.97;;
9807;SDS011;4943;52.550;13.462;2023-05-10T01:42:31;152.17;;;130.50;;
9807;SDS011;4943;52.550;13.462;2023-05-10T01:45:10;157.87;;;137.33;;
9807;SDS011;4943;52.550;13.462;2023-05-10T01:47:48;164.40;;;133.87;;
9807;SDS011;4943;52.550;13.462;2023-05-10T01:50:22;166.07;;;133.03;;
9807;SDS011;4943;52.550;13.462;2023-05-10T01:52:55;159.87;;;130.77;;
9807;SDS011;4943;52.550;13.462;2023-05-10T01:55:27;155.97;;;130.47;;
9807;SDS011;4943;52.550;13.462;2023-05-10T01:58:00;171.63;;;132.20;;
9807;SDS011;4943;52.550;13.462;2023-05-10T02:00:31;161.87;;;129.93;;
9807;SDS011;4943;52.550;13.462;2023-05-10T02:03:03;161.07;;;132.20;;
9807;SDS011;4943;52.550;13.462;2023-05-10T02:05:34;153.13;;;130.73;;
9807;SDS011;4943;52.550;13.462;2023-05-10T02:08:05;148.97;;;129.17;;
9807;SDS011;4943;52.550;13.462;2023-05-10T02:10:34;130.77;;;117.13;;
9807;SDS011;4943;52.550;13.462;2023-05-10T02:13:02;135.33;;;120.87;;
9807;SDS011;4943;52.550;13.462;2023-05-10T02:15:32;152.27;;;129.83;;
9807;SDS011;4943;52.550;13.462;2023-05-10T02:18:02;157.53;;;129.40;;
9807;SDS011;4943;52.550;13.462;2023-05-10T02:20:32;170.87;;;130.93;;
9807;SDS011;4943;52.550;13.462;2023-05-10T02:23:02;168.60;;;130.50;;
9807;SDS011;4943;52.550;13.462;2023-05-10T02:25:31;159.53;;;127.80;;
9807;SDS011;4943;52.550;13.462;2023-05-10T02:28:01;160.83;;;128.93;;
9807;SDS011;4943;52.550;13.462;2023-05-10T02:30:31;165.90;;;128.90;;
9807;SDS011;4943;52.550;13.462;2023-05-10T02:33:02;162.90;;;127.73;;
9807;SDS011;4943;52.550;13.462;2023-05-10T02:35:32;168.83;;;125.73;;
9807;SDS011;4943;52.550;13.462;2023-05-10T02:38:02;171.50;;;129.70;;
9807;SDS011;4943;52.550;13.462;2023-05-10T02:40:31;170.37;;;125.73;;
9807;SDS011;4943;52.550;13.462;2023-05-10T02:43:01;165.20;;;126.00;;
9807;SDS011;4943;52.550;13.462;2023-05-10T02:45:30;164.63;;;124.50;;
9807;SDS011;4943;52.550;13.462;2023-05-10T02:47:59;174.27;;;126.33;;
9807;SDS011;4943;52.550;13.462;2023-05-10T02:50:29;179.93;;;131.00;;
9807;SDS011;4943;52.550;13.462;2023-05-10T02:53:00;175.63;;;125.37;;
9807;SDS011;4943;52.550;13.462;2023-05-10T02:55:31;165.20;;;120.67;;
9807;SDS011;4943;52.550;13.462;2023-05-10T02:58:04;170.00;;;123.27;;
9807;SDS011;4943;52.550;13.462;2023-05-10T03:00:32;171.50;;;125.27;;
9807;SDS011;4943;52.550;13.462;2023-05-10T03:03:00;173.03;;;123.57;;
9807;SDS011;4943;52.550;13.462;2023-05-10T03:05:30;176.73;;;127.10;;
9807;SDS011;4943;52.550;13.462;2023-05-10T03:07:58;164.73;;;121.53;;
9807;SDS011;4943;52.550;13.462;2023-05-10T03:10:30;169.47;;;123.27;;
9807;SDS011;4943;52.550;13.462;2023-05-10T03:13:04;176.00;;;121.47;;
9807;SDS011;4943;52.550;13.462;2023-05-10T03:15:37;160.70;;;119.90;;
9807;SDS011;4943;52.550;13.462;2023-05-10T03:18:15;158.60;;;122.57;;
9807;SDS011;4943;52.550;13.462;2023-05-10T03:20:47;167.23;;;124.00;;
9807;SDS011;4943;52.550;13.462;2023-05-10T03:23:21;171.67;;;123.00;;
9807;SDS011;4943;52.550;13.462;2023-05-10T03:25:54;171.53;;;123.83;;
9807;SDS011;4943;52.550;13.462;2023-05-10T03:28:22;172.67;;;124.23;;
9807;SDS011;4943;52.550;13.462;2023-05-10T03:30:54;178.20;;;120.97;;
9807;SDS011;4943;52.550;13.462;2023-05-10T03:33:23;177.90;;;122.97;;
9807;SDS011;4943;52.550;13.462;2023-05-10T03:35:52;179.90;;;121.80;;
9807;SDS011;4943;52.550;13.462;2023-05-10T03:38:20;184.53;;;122.40;;
9807;SDS011;4943;52.550;13.462;2023-05-10T03:40:48;182.30;;;123.47;;
9807;SDS011;4943;52.550;13.462;2023-05-10T03:43:16;193.23;;;128.30;;
9807;SDS011;4943;52.550;13.462;2023-05-10T03:45:44;189.17;;;124.03;;
9807;SDS011;4943;52.550;13.462;2023-05-10T03:48:13;202.70;;;128.80;;
9807;SDS011;4943;52.550;13.462;2023-05-10T03:50:41;196.80;;;126.00;;
9807;SDS011;4943;52.550;13.462;2023-05-10T03:53:10;189.43;;;125.33;;
9807;SDS011;4943;52.550;13.462;2023-05-10T03:55:38;192.13;;;129.03;;
9807;SDS011;4943;52.550;13.462;2023-05-10T03:58:06;198.37;;;130.50;;
9807;SDS011;4943;52.550;13.462;2023-05-10T04:00:37;204.23;;;129.30;;
9807;SDS011;4943;52.550;13.462;2023-05-10T04:03:09;205.80;;;128.03;;
9807;SDS011;4943;52.550;13.462;2023-05-10T04:05:38;199.70;;;131.97;;
9807;SDS011;4943;52.550;13.462;2023-05-10T04:08:06;210.47;;;130.93;;
9807;SDS011;4943;52.550;13.462;2023-05-10T04:10:35;203.23;;;131.90;;
9807;SDS011;4943;52.550;13.462;2023-05-10T04:13:03;201.30;;;131.57;;
9807;SDS011;4943;52.550;13.462;2023-05-10T04:15:32;211.97;;;131.37;;
9807;SDS011;4943;52.550;13.462;2023-05-10T04:18:00;214.87;;;130.00;;
9807;SDS011;4943;52.550;13.462;2023-05-10T04:20:28;219.37;;;131.60;;
9807;SDS011;4943;52.550;13.462;2023-05-10T04:22:56;213.57;;;131.63;;
9807;SDS011;4943;52.550;13.462;2023-05-10T04:25:24;218.73;;;135.50;;
9807;SDS011;4943;52.550;13.462;2023-05-10T04:27:53;219.30;;;133.17;;
9807;SDS011;4943;52.550;13.462;2023-05-10T04:30:21;226.30;;;136.07;;
9807;SDS011;4943;52.550;13.462;2023-05-10T04:32:50;234.07;;;139.33;;
9807;SDS011;4943;52.550;13.462;2023-05-10T04:35:18;238.40;;;137.37;;
9807;SDS011;4943;52.550;13.462;2023-05-10T04:37:46;244.60;;;136.27;;
9807;SDS011;4943;52.550;13.462;2023-05-10T04:40:14;246.87;;;140.50;;
9807;SDS011;4943;52.550;13.462;2023-05-10T04:42:43;244.87;;;138.93;;
9807;SDS011;4943;52.550;13.462;2023-05-10T04:45:12;253.23;;;138.63;;
9807;SDS011;4943;52.550;13.462;2023-05-10T04:47:41;254.37;;;140.07;;
9807;SDS011;4943;52.550;13.462;2023-05-10T04:50:09;256.87;;;145.17;;
9807;SDS011;4943;52.550;13.462;2023-05-10T04:52:37;265.90;;;141.73;;
9807;SDS011;4943;52.550;13.462;2023-05-10T04:55:06;265.87;;;142.63;;
9807;SDS011;4943;52.550;13.462;2023-05-10T04:57:36;273.93;;;144.70;;
9807;SDS011;4943;52.550;13.462;2023-05-10T05:00:04;270.57;;;145.97;;
9807;SDS011;4943;52.550;13.462;2023-05-10T05:02:35;278.67;;;147.10;;
9807;SDS011;4943;52.550;13.462;2023-05-10T05:05:03;284.43;;;146.83;;
9807;SDS011;4943;52.550;13.462;2023-05-10T05:07:32;290.17;;;148.37;;
9807;SDS011;4943;52.550;13.462;2023-05-10T05:10:00;298.80;;;148.00;;
9807;SDS011;4943;52.550;13.462;2023-05-10T05:12:28;298.07;;;150.43;;
9807;SDS011;4943;52.550;13.462;2023-05-10T05:14:56;297.00;;;152.03;;
9807;SDS011;4943;52.550;13.462;2023-05-10T05:17:24;300.10;;;149.23;;
9807;SDS011;4943;52.550;13.462;2023-05-10T05:19:54;299.83;;;150.70;;
9807;SDS011;4943;52.550;13.462;2023-05-10T05:22:22;311.80;;;153.90;;
9807;SDS011;4943;52.550;13.462;2023-05-10T05:24:53;311.33;;;154.23;;
9807;SDS011;4943;52.550;13.462;2023-05-10T05:27:22;312.60;;;153.40;;
9807;SDS011;4943;52.550;13.462;2023-05-10T05:29:52;313.20;;;153.33;;
9807;SDS011;4943;52.550;13.462;2023-05-10T05:32:20;315.60;;;156.60;;
9807;SDS011;4943;52.550;13.462;2023-05-10T05:34:48;316.97;;;160.83;;
9807;SDS011;4943;52.550;13.462;2023-05-10T05:37:18;320.17;;;163.50;;
9807;SDS011;4943;52.550;13.462;2023-05-10T05:39:48;321.50;;;160.23;;
9807;SDS011;4943;52.550;13.462;2023-05-10T05:42:16;318.13;;;158.33;;
9807;SDS011;4943;52.550;13.462;2023-05-10T05:44:45;318.13;;;159.73;;
9807;SDS011;4943;52.550;13.462;2023-05-10T05:47:13;318.47;;;160.67;;
9807;SDS011;4943;52.550;13.462;2023-05-10T05:49:41;324.83;;;162.67;;
9807;SDS011;4943;52.550;13.462;2023-05-10T05:52:11;330.23;;;168.17;;
9807;SDS011;4943;52.550;13.462;2023-05-10T05:54:41;322.43;;;166.63;;
9807;SDS011;4943;52.550;13.462;2023-05-10T05:57:09;319.40;;;166.13;;
9807;SDS011;4943;52.550;13.462;2023-05-10T05:59:37;226.23;;;173.83;;
9807;SDS011;4943;52.550;13.462;2023-05-10T06:02:08;324.73;;;168.17;;
9807;SDS011;4943;52.550;13.462;2023-05-10T06:04:36;321.13;;;168.63;;
9807;SDS011;4943;52.550;13.462;2023-05-10T06:07:04;328.33;;;173.03;;
9807;SDS011;4943;52.550;13.462;2023-05-10T06:09:32;325.23;;;175.13;;
9807;SDS011;4943;52.550;13.462;2023-05-10T06:12:01;326.17;;;176.70;;
9807;SDS011;4943;52.550;13.462;2023-05-10T06:14:30;326.67;;;182.73;;
9807;SDS011;4943;52.550;13.462;2023-05-10T06:16:57;324.60;;;177.53;;
9807;SDS011;4943;52.550;13.462;2023-05-10T06:19:26;325.67;;;183.20;;
9807;SDS011;4943;52.550;13.462;2023-05-10T06:21:54;330.17;;;193.27;;
9807;SDS011;4943;52.550;13.462;2023-05-10T06:24:22;338.63;;;188.70;;
9807;SDS011;4943;52.550;13.462;2023-05-10T06:26:50;330.97;;;195.30;;
9807;SDS011;4943;52.550;13.462;2023-05-10T06:29:19;334.23;;;203.97;;
9807;SDS011;4943;52.550;13.462;2023-05-10T06:31:47;334.87;;;205.87;;
9807;SDS011;4943;52.550;13.462;2023-05-10T06:34:15;332.63;;;199.30;;
9807;SDS011;4943;52.550;13.462;2023-05-10T06:36:43;336.83;;;210.67;;
9807;SDS011;4943;52.550;13.462;2023-05-10T06:39:12;335.30;;;208.37;;
9807;SDS011;4943;52.550;13.462;2023-05-10T06:41:40;337.00;;;213.23;;
9807;SDS011;4943;52.550;13.462;2023-05-10T06:44:08;340.77;;;215.73;;
9807;SDS011;4943;52.550;13.462;2023-05-10T06:46:38;338.53;;;217.27;;
9807;SDS011;4943;52.550;13.462;2023-05-10T06:49:06;339.37;;;219.23;;
9807;SDS011;4943;52.550;13.462;2023-05-10T06:51:34;340.20;;;221.38;;
9807;SDS011;4943;52.550;13.462;2023-05-10T06:54:02;340.60;;;223.67;;
9807;SDS011;4943;52.550;13.462;2023-05-10T06:56:30;339.87;;;221.43;;
9807;SDS011;4943;52.550;13.462;2023-05-10T06:58:58;338.40;;;222.77;;
9807;SDS011;4943;52.550;13.462;2023-05-10T07:01:26;345.80;;;228.97;;
9807;SDS011;4943;52.550;13.462;2023-05-10T07:03:55;344.77;;;229.83;;
9807;SDS011;4943;52.550;13.462;2023-05-10T07:06:23;347.27;;;230.80;;
9807;SDS011;4943;52.550;13.462;2023-05-10T07:08:59;344.13;;;232.67;;
9807;SDS011;4943;52.550;13.462;2023-05-10T07:11:27;344.80;;;238.33;;
9807;SDS011;4943;52.550;13.462;2023-05-10T07:13:55;351.40;;;246.33;;
9807;SDS011;4943;52.550;13.462;2023-05-10T07:16:23;354.87;;;249.70;;
9807;SDS011;4943;52.550;13.462;2023-05-10T07:18:51;346.37;;;237.47;;
9807;SDS011;4943;52.550;13.462;2023-05-10T07:21:21;347.80;;;242.10;;
9807;SDS011;4943;52.550;13.462;2023-05-10T07:23:50;346.97;;;241.27;;
9807;SDS011;4943;52.550;13.462;2023-05-10T07:26:18;347.47;;;242.87;;
9807;SDS011;4943;52.550;13.462;2023-05-10T07:28:47;346.73;;;242.70;;
9807;SDS011;4943;52.550;13.462;2023-05-10T07:31:15;354.00;;;249.70;;
9807;SDS011;4943;52.550;13.462;2023-05-10T07:33:43;350.50;;;251.93;;
9807;SDS011;4943;52.550;13.462;2023-05-10T07:36:12;351.53;;;253.00;;
9807;SDS011;4943;52.550;13.462;2023-05-10T07:38:41;354.67;;;248.50;;
9807;SDS011;4943;52.550;13.462;2023-05-10T07:41:09;352.57;;;255.37;;
9807;SDS011;4943;52.550;13.462;2023-05-10T07:43:37;354.00;;;256.77;;
9807;SDS011;4943;52.550;13.462;2023-05-10T07:46:06;354.00;;;259.37;;
9807;SDS011;4943;52.550;13.462;2023-05-10T07:48:36;357.20;;;259.87;;
9807;SDS011;4943;52.550;13.462;2023-05-10T07:51:04;361.97;;;273.97;;
9807;SDS011;4943;52.550;13.462;2023-05-10T07:53:35;358.63;;;268.50;;
9807;SDS011;4943;52.550;13.462;2023-05-10T07:58:49;353.97;;;268.63;;
9807;SDS011;4943;52.550;13.462;2023-05-10T08:01:17;356.97;;;273.10;;
9807;SDS011;4943;52.550;13.462;2023-05-10T08:03:45;358.37;;;272.37;;
9807;SDS011;4943;52.550;13.462;2023-05-10T08:06:14;357.80;;;275.93;;
9807;SDS011;4943;52.550;13.462;2023-05-10T08:08:45;347.43;;;276.37;;
9807;SDS011;4943;52.550;13.462;2023-05-10T08:11:15;357.00;;;277.47;;
9807;SDS011;4943;52.550;13.462;2023-05-10T08:13:45;355.17;;;278.38;;
9807;SDS011;4943;52.550;13.462;2023-05-10T08:16:14;358.67;;;288.53;;
9807;SDS011;4943;52.550;13.462;2023-05-10T08:18:43;362.13;;;284.77;;
9807;SDS011;4943;52.550;13.462;2023-05-10T08:21:13;356.42;;;292.10;;
9807;SDS011;4943;52.550;13.462;2023-05-10T08:23:41;353.98;;;287.88;;
9807;SDS011;4943;52.550;13.462;2023-05-10T08:26:10;359.42;;;291.92;;
9807;SDS011;4943;52.550;13.462;2023-05-10T08:28:38;364.93;;;298.83;;
9807;SDS011;4943;52.550;13.462;2023-05-10T08:31:07;365.07;;;294.23;;
9807;SDS011;4943;52.550;13.462;2023-05-10T08:33:35;364.60;;;296.27;;
9807;SDS011;4943;52.550;13.462;2023-05-10T08:36:03;363.08;;;296.40;;
9807;SDS011;4943;52.550;13.462;2023-05-10T08:38:31;366.53;;;304.23;;
9807;SDS011;4943;52.550;13.462;2023-05-10T08:41:00;365.93;;;304.47;;
9807;SDS011;4943;52.550;13.462;2023-05-10T08:43:30;373.03;;;306.63;;
9807;SDS011;4943;52.550;13.462;2023-05-10T08:45:59;368.20;;;306.27;;
9807;SDS011;4943;52.550;13.462;2023-05-10T08:48:30;371.95;;;314.92;;
9807;SDS011;4943;52.550;13.462;2023-05-10T08:51:01;364.03;;;311.77;;
9807;SDS011;4943;52.550;13.462;2023-05-10T08:53:31;371.67;;;316.63;;
9807;SDS011;4943;52.550;13.462;2023-05-10T08:56:02;368.83;;;317.67;;
9807;SDS011;4943;52.550;13.462;2023-05-10T08:58:31;369.52;;;320.08;;
9807;SDS011;4943;52.550;13.462;2023-05-10T09:00:59;367.52;;;321.80;;
9807;SDS011;4943;52.550;13.462;2023-05-10T09:03:28;372.60;;;323.63;;
9807;SDS011;4943;52.550;13.462;2023-05-10T09:05:58;372.90;;;332.30;;
9807;SDS011;4943;52.550;13.462;2023-05-10T09:08:26;375.42;;;331.98;;
9807;SDS011;4943;52.550;13.462;2023-05-10T09:10:55;325.90;;;294.42;;
9807;SDS011;4943;52.550;13.462;2023-05-10T09:13:23;379.15;;;338.17;;
9807;SDS011;4943;52.550;13.462;2023-05-10T09:15:52;378.17;;;337.58;;
9807;SDS011;4943;52.550;13.462;2023-05-10T09:18:20;375.17;;;335.13;;
9807;SDS011;4943;52.550;13.462;2023-05-10T09:20:52;391.73;;;349.77;;
9807;SDS011;4943;52.550;13.462;2023-05-10T09:23:20;385.80;;;344.13;;
9807;SDS011;4943;52.550;13.462;2023-05-10T09:25:48;389.45;;;348.45;;
9807;SDS011;4943;52.550;13.462;2023-05-10T09:28:33;384.05;;;341.90;;
9807;SDS011;4943;52.550;13.462;2023-05-10T09:31:16;389.27;;;346.58;;
9807;SDS011;4943;52.550;13.462;2023-05-10T09:33:44;386.67;;;344.23;;
9807;SDS011;4943;52.550;13.462;2023-05-10T09:36:14;385.73;;;343.37;;
9807;SDS011;4943;52.550;13.462;2023-05-10T09:38:46;394.20;;;351.35;;
9807;SDS011;4943;52.550;13.462;2023-05-10T09:41:16;391.77;;;349.10;;
9807;SDS011;4943;52.550;13.462;2023-05-10T09:43:45;405.25;;;362.27;;
9807;SDS011;4943;52.550;13.462;2023-05-10T09:46:13;403.45;;;360.42;;
9807;SDS011;4943;52.550;13.462;2023-05-10T09:48:43;406.63;;;363.50;;
9807;SDS011;4943;52.550;13.462;2023-05-10T09:51:19;416.88;;;372.98;;
9807;SDS011;4943;52.550;13.462;2023-05-10T09:53:48;407.45;;;364.20;;
9807;SDS011;4943;52.550;13.462;2023-05-10T09:56:35;408.23;;;364.50;;
9807;SDS011;4943;52.550;13.462;2023-05-10T09:59:06;410.60;;;367.25;;
9807;SDS011;4943;52.550;13.462;2023-05-10T10:01:35;426.98;;;383.15;;
9807;SDS011;4943;52.550;13.462;2023-05-10T10:04:04;425.52;;;381.95;;
9807;SDS011;4943;52.550;13.462;2023-05-10T10:06:37;431.20;;;387.10;;
9807;SDS011;4943;52.550;13.462;2023-05-10T10:09:06;430.95;;;386.60;;
9807;SDS011;4943;52.550;13.462;2023-05-10T10:11:35;431.55;;;387.35;;
9807;SDS011;4943;52.550;13.462;2023-05-10T10:14:05;438.02;;;393.83;;
9807;SDS011;4943;52.550;13.462;2023-05-10T10:16:33;435.15;;;391.20;;
9807;SDS011;4943;52.550;13.462;2023-05-10T10:19:01;434.58;;;390.42;;
9807;SDS011;4943;52.550;13.462;2023-05-10T10:21:30;440.67;;;396.33;;
9807;SDS011;4943;52.550;13.462;2023-05-10T10:24:00;440.02;;;395.02;;
9807;SDS011;4943;52.550;13.462;2023-05-10T10:26:32;448.90;;;403.70;;
9807;SDS011;4943;52.550;13.462;2023-05-10T10:29:04;445.23;;;400.83;;
9807;SDS011;4943;52.550;13.462;2023-05-10T10:31:45;456.35;;;411.58;;
9807;SDS011;4943;52.550;13.462;2023-05-10T10:34:22;448.02;;;403.67;;
9807;SDS011;4943;52.550;13.462;2023-05-10T10:36:54;475.85;;;432.00;;
9807;SDS011;4943;52.550;13.462;2023-05-10T10:39:24;464.85;;;420.00;;
9807;SDS011;4943;52.550;13.462;2023-05-10T10:41:54;471.35;;;426.13;;
9807;SDS011;4943;52.550;13.462;2023-05-10T10:44:28;479.27;;;434.70;;
9807;SDS011;4943;52.550;13.462;2023-05-10T10:47:03;483.92;;;439.13;;
9807;SDS011;4943;52.550;13.462;2023-05-10T10:49:38;475.02;;;429.55;;
9807;SDS011;4943;52.550;13.462;2023-05-10T10:52:13;464.70;;;419.80;;
9807;SDS011;4943;52.550;13.462;2023-05-10T10:54:48;468.48;;;423.60;;
9807;SDS011;4943;52.550;13.462;2023-05-10T10:57:18;477.02;;;431.52;;
9807;SDS011;4943;52.550;13.462;2023-05-10T10:59:48;481.42;;;436.42;;
9807;SDS011;4943;52.550;13.462;2023-05-10T11:02:42;510.90;;;468.77;;
9807;SDS011;4943;52.550;13.462;2023-05-10T11:08:16;508.75;;;465.77;;
9807;SDS011;4943;52.550;13.462;2023-05-10T11:11:05;520.58;;;475.50;;
9807;SDS011;4943;52.550;13.462;2023-05-10T11:13:37;506.98;;;464.88;;
9807;SDS011;4943;52.550;13.462;2023-05-10T11:16:13;517.10;;;475.00;;
9807;SDS011;4943;52.550;13.462;2023-05-10T11:18:58;519.65;;;477.10;;
9807;SDS011;4943;52.550;13.462;2023-05-10T11:21:28;533.40;;;488.48;;
9807;SDS011;4943;52.550;13.462;2023-05-10T11:23:57;533.08;;;489.95;;
9807;SDS011;4943;52.550;13.462;2023-05-10T11:26:31;540.60;;;497.02;;
9807;SDS011;4943;52.550;13.462;2023-05-10T11:29:01;557.53;;;512.03;;
9807;SDS011;4943;52.550;13.462;2023-05-10T11:31:31;545.67;;;501.60;;
9807;SDS011;4943;52.550;13.462;2023-05-10T11:33:59;550.88;;;505.83;;
9807;SDS011;4943;52.550;13.462;2023-05-10T11:36:29;556.70;;;511.55;;
9807;SDS011;4943;52.550;13.462;2023-05-10T11:39:00;559.00;;;514.35;;
9807;SDS011;4943;52.550;13.462;2023-05-10T11:41:30;555.95;;;511.60;;
9807;SDS011;4943;52.550;13.462;2023-05-10T11:43:58;563.08;;;517.30;;
9807;SDS011;4943;52.550;13.462;2023-05-10T11:46:27;560.10;;;514.00;;
9807;SDS011;4943;52.550;13.462;2023-05-10T11:48:57;572.38;;;525.67;;
9807;SDS011;4943;52.550;13.462;2023-05-10T11:51:27;562.25;;;517.00;;
9807;SDS011;4943;52.550;13.462;2023-05-10T11:53:56;555.53;;;511.73;;
9807;SDS011;4943;52.550;13.462;2023-05-10T11:56:24;564.00;;;519.00;;
9807;SDS011;4943;52.550;13.462;2023-05-10T11:58:55;571.47;;;525.65;;
9807;SDS011;4943;52.550;13.462;2023-05-10T12:01:24;567.58;;;523.67;;
9807;SDS011;4943;52.550;13.462;2023-05-10T12:03:54;576.55;;;530.83;;
9807;SDS011;4943;52.550;13.462;2023-05-10T12:06:26;577.00;;;532.38;;
9807;SDS011;4943;52.550;13.462;2023-05-10T12:09:05;583.50;;;537.58;;
9807;SDS011;4943;52.550;13.462;2023-05-10T12:11:37;578.88;;;532.72;;
9807;SDS011;4943;52.550;13.462;2023-05-10T12:14:10;586.47;;;540.60;;
9807;SDS011;4943;52.550;13.462;2023-05-10T12:16:38;587.97;;;542.90;;
9807;SDS011;4943;52.550;13.462;2023-05-10T12:19:07;593.90;;;547.20;;
9807;SDS011;4943;52.550;13.462;2023-05-10T12:21:36;597.67;;;551.10;;
9807;SDS011;4943;52.550;13.462;2023-05-10T12:24:05;608.97;;;560.45;;
9807;SDS011;4943;52.550;13.462;2023-05-10T12:26:33;613.95;;;564.80;;
9807;SDS011;4943;52.550;13.462;2023-05-10T12:29:14;613.47;;;564.15;;
9807;SDS011;4943;52.550;13.462;2023-05-10T12:31:50;615.10;;;567.35;;
9807;SDS011;4943;52.550;13.462;2023-05-10T12:34:23;618.70;;;570.17;;
9807;SDS011;4943;52.550;13.462;2023-05-10T12:36:52;624.67;;;576.10;;
9807;SDS011;4943;52.550;13.462;2023-05-10T12:39:21;623.60;;;574.40;;
9807;SDS011;4943;52.550;13.462;2023-05-10T12:41:49;626.40;;;576.97;;
9807;SDS011;4943;52.550;13.462;2023-05-10T12:44:18;622.65;;;573.20;;
9807;SDS011;4943;52.550;13.462;2023-05-10T12:46:47;622.55;;;573.10;;
9807;SDS011;4943;52.550;13.462;2023-05-10T12:49:14;627.63;;;578.08;;
9807;SDS011;4943;52.550;13.462;2023-05-10T12:51:42;626.38;;;577.10;;
9807;SDS011;4943;52.550;13.462;2023-05-10T12:54:11;637.80;;;588.35;;
9807;SDS011;4943;52.550;13.462;2023-05-10T12:56:39;636.47;;;587.10;;
9807;SDS011;4943;52.550;13.462;2023-05-10T12:59:08;640.38;;;590.97;;
9807;SDS011;4943;52.550;13.462;2023-05-10T13:01:38;644.15;;;593.92;;
9807;SDS011;4943;52.550;13.462;2023-05-10T13:04:06;645.35;;;595.35;;
9807;SDS011;4943;52.550;13.462;2023-05-10T13:06:34;637.20;;;587.33;;
9807;SDS011;4943;52.550;13.462;2023-05-10T13:09:03;646.83;;;597.17;;
9807;SDS011;4943;52.550;13.462;2023-05-10T13:11:34;644.67;;;594.60;;
9807;SDS011;4943;52.550;13.462;2023-05-10T13:14:03;651.72;;;600.88;;
9807;SDS011;4943;52.550;13.462;2023-05-10T13:16:31;657.90;;;607.65;;
9807;SDS011;4943;52.550;13.462;2023-05-10T13:19:00;655.65;;;605.05;;
9807;SDS011;4943;52.550;13.462;2023-05-10T13:21:29;659.22;;;608.65;;
9807;SDS011;4943;52.550;13.462;2023-05-10T13:23:57;651.58;;;600.67;;
9807;SDS011;4943;52.550;13.462;2023-05-10T13:26:26;654.28;;;603.83;;
9807;SDS011;4943;52.550;13.462;2023-05-10T13:28:54;660.10;;;609.42;;
9807;SDS011;4943;52.550;13.462;2023-05-10T13:31:22;661.42;;;610.80;;
9807;SDS011;4943;52.550;13.462;2023-05-10T13:33:51;673.95;;;622.75;;
9807;SDS011;4943;52.550;13.462;2023-05-10T13:36:20;663.08;;;612.47;;
9807;SDS011;4943;52.550;13.462;2023-05-10T13:38:49;671.22;;;620.25;;
9807;SDS011;4943;52.550;13.462;2023-05-10T13:41:16;670.72;;;619.75;;
9807;SDS011;4943;52.550;13.462;2023-05-10T13:43:45;666.30;;;615.35;;
9807;SDS011;4943;52.550;13.462;2023-05-10T13:46:14;678.72;;;627.72;;
9807;SDS011;4943;52.550;13.462;2023-05-10T13:48:42;683.92;;;632.53;;
9807;SDS011;4943;52.550;13.462;2023-05-10T13:51:12;684.00;;;632.38;;
9807;SDS011;4943;52.550;13.462;2023-05-10T13:53:41;669.95;;;618.65;;
9807;SDS011;4943;52.550;13.462;2023-05-10T13:56:09;678.75;;;627.35;;
9807;SDS011;4943;52.550;13.462;2023-05-10T13:58:38;676.17;;;625.17;;
9807;SDS011;4943;52.550;13.462;2023-05-10T14:01:06;675.25;;;624.15;;
9807;SDS011;4943;52.550;13.462;2023-05-10T14:03:34;687.65;;;636.15;;
9807;SDS011;4943;52.550;13.462;2023-05-10T14:06:02;686.47;;;635.20;;
9807;SDS011;4943;52.550;13.462;2023-05-10T14:08:31;687.55;;;635.95;;
9807;SDS011;4943;52.550;13.462;2023-05-10T14:11:00;695.33;;;643.65;;
9807;SDS011;4943;52.550;13.462;2023-05-10T14:13:28;693.63;;;642.42;;
9807;SDS011;4943;52.550;13.462;2023-05-10T14:15:56;708.33;;;656.40;;
9807;SDS011;4943;52.550;13.462;2023-05-10T14:18:26;716.97;;;665.00;;
9807;SDS011;4943;52.550;13.462;2023-05-10T14:20:54;718.78;;;666.50;;
9807;SDS011;4943;52.550;13.462;2023-05-10T14:23:22;718.50;;;666.38;;
9807;SDS011;4943;52.550;13.462;2023-05-10T14:25:52;738.70;;;686.08;;
9807;SDS011;4943;52.550;13.462;2023-05-10T14:28:21;740.60;;;687.65;;
9807;SDS011;4943;52.550;13.462;2023-05-10T14:30:50;739.67;;;686.75;;
9807;SDS011;4943;52.550;13.462;2023-05-10T14:33:18;737.17;;;684.40;;
9807;SDS011;4943;52.550;13.462;2023-05-10T14:35:47;746.00;;;693.05;;